Time,TemperatureF,DewpointF,PressureIn,WindDirection,WindDirectionDegrees,WindSpeedMPH,WindSpeedGustMPH,Humidity,HourlyPrecipIn,Conditions,Clouds,dailyrainin,SolarRadiationWatts/m^2,SoftwareType,DateUTC
2014-02-01 00:02:00,20.0,6.0,-100.00,South,178,3.0,7.0,54,0.00,,,0.00,0.000000,,2014-02-01 06:02:00,
2014-02-01 00:42:00,21.0,7.0,-100.00,South,176,3.0,8.0,53,0.00,,,0.00,0.000000,,2014-02-01 06:42:00,
2014-02-01 00:52:00,21.0,7.0,-100.00,South,176,3.0,8.0,53,0.00,,,0.00,0.000000,,2014-02-01 06:52:00,
2014-02-01 01:02:00,21.0,7.0,-100.00,South,176,3.0,8.0,53,0.00,,,0.00,0.000000,,2014-02-01 07:02:00,
2014-02-01 01:11:00,21.0,9.0,-100.00,South,175,4.0,7.0,58,0.00,,,0.00,0.000000,,2014-02-01 07:11:00,
2014-02-01 01:42:00,21.0,9.0,-100.00,South,175,4.0,7.0,58,0.00,,,0.00,0.000000,,2014-02-01 07:42:00,
2014-02-01 01:53:00,21.0,9.0,-100.00,South,175,4.0,7.0,58,0.00,,,0.00,0.000000,,2014-02-01 07:53:00,
2014-02-01 02:02:00,21.0,9.0,-100.00,South,175,4.0,7.0,58,0.00,,,0.00,0.000000,,2014-02-01 08:02:00,
2014-02-01 02:11:00,19.0,17.0,-100.00,South,188,6.0,13.0,90,0.00,,,0.00,0.000000,,2014-02-01 08:11:00,
2014-02-01 02:42:00,19.0,17.0,-100.00,South,188,6.0,13.0,90,0.00,,,0.00,0.000000,,2014-02-01 08:42:00,
2014-02-01 02:52:00,19.0,17.0,-100.00,South,188,6.0,13.0,90,0.00,,,0.00,0.000000,,2014-02-01 08:52:00,
2014-02-01 03:02:00,19.0,17.0,-100.00,South,188,6.0,13.0,90,0.00,,,0.00,0.000000,,2014-02-01 09:02:00,
2014-02-01 03:11:00,19.0,18.0,-100.00,South,176,1.0,8.0,96,0.00,,,0.00,0.000000,,2014-02-01 09:11:00,
2014-02-01 03:43:00,19.0,18.0,-100.00,South,176,1.0,8.0,96,0.00,,,0.00,0.000000,,2014-02-01 09:43:00,
2014-02-01 03:53:00,19.0,18.0,-100.00,South,176,1.0,8.0,96,0.00,,,0.00,0.000000,,2014-02-01 09:53:00,
2014-02-01 04:03:00,19.0,18.0,-100.00,South,176,1.0,8.0,96,0.00,,,0.00,0.000000,,2014-02-01 10:03:00,
2014-02-01 04:11:00,19.0,18.0,-100.00,SSE,151,1.0,4.0,97,0.00,,,-99.99,0.000000,,2014-02-01 10:11:00,
2014-02-01 04:43:00,19.0,18.0,-100.00,SSE,151,1.0,4.0,97,0.00,,,-99.99,0.000000,,2014-02-01 10:43:00,
2014-02-01 04:53:00,19.0,18.0,-100.00,SSE,151,1.0,4.0,97,0.00,,,-99.99,0.000000,,2014-02-01 10:53:00,
2014-02-01 05:03:00,19.0,18.0,-100.00,SSE,151,1.0,4.0,97,0.00,,,-99.99,0.000000,,2014-02-01 11:03:00,
2014-02-01 05:11:00,19.0,18.0,-100.00,South,174,1.0,3.0,97,0.00,,,0.00,0.000000,,2014-02-01 11:11:00,
2014-02-01 05:42:00,19.0,18.0,-100.00,South,174,1.0,3.0,97,0.00,,,0.00,0.000000,,2014-02-01 11:42:00,
2014-02-01 05:53:00,19.0,18.0,-100.00,South,174,1.0,3.0,97,0.00,,,0.00,0.000000,,2014-02-01 11:53:00,
2014-02-01 06:02:00,19.0,18.0,-100.00,South,174,1.0,3.0,97,0.00,,,0.00,0.000000,,2014-02-01 12:02:00,
2014-02-01 06:11:00,18.0,17.0,-100.00,North,-999,0.0,4.0,97,0.00,,,0.00,0.000000,,2014-02-01 12:11:00,
2014-02-01 06:42:00,18.0,17.0,-100.00,North,-999,0.0,4.0,97,0.00,,,0.00,0.000000,,2014-02-01 12:42:00,
2014-02-01 06:52:00,18.0,17.0,-100.00,North,-999,0.0,4.0,97,0.00,,,0.00,0.000000,,2014-02-01 12:52:00,
2014-02-01 07:02:00,18.0,17.0,-100.00,North,-999,0.0,4.0,97,0.00,,,0.00,0.000000,,2014-02-01 13:02:00,
2014-02-01 07:11:00,17.0,17.0,-100.00,North,353,1.0,4.0,98,0.00,,,0.00,0.000000,,2014-02-01 13:11:00,
2014-02-01 07:42:00,17.0,17.0,-100.00,North,353,1.0,4.0,98,0.00,,,0.00,0.000000,,2014-02-01 13:42:00,
2014-02-01 07:52:00,17.0,17.0,-100.00,North,353,1.0,4.0,98,0.00,,,0.00,0.000000,,2014-02-01 13:52:00,
2014-02-01 08:02:00,17.0,17.0,-100.00,North,353,1.0,4.0,98,0.00,,,0.00,0.000000,,2014-02-01 14:02:00,
2014-02-01 08:11:00,17.0,12.0,-100.00,NNW,330,10.0,18.0,81,0.00,,,0.00,5.000000,,2014-02-01 14:11:00,
2014-02-01 08:42:00,17.0,12.0,-100.00,NNW,330,10.0,18.0,81,0.00,,,0.00,5.000000,,2014-02-01 14:42:00,
2014-02-01 08:52:00,17.0,12.0,-100.00,NNW,330,10.0,18.0,81,0.00,,,0.00,5.000000,,2014-02-01 14:52:00,
2014-02-01 09:02:00,17.0,12.0,-100.00,NNW,330,10.0,18.0,81,0.00,,,0.00,5.000000,,2014-02-01 15:02:00,
2014-02-01 09:11:00,16.0,10.0,-100.00,NNW,327,14.0,23.0,78,0.00,,,0.00,47.000000,,2014-02-01 15:11:00,
2014-02-01 09:43:00,16.0,10.0,-100.00,NNW,327,14.0,23.0,78,0.00,,,0.00,47.000000,,2014-02-01 15:43:00,
2014-02-01 09:54:00,16.0,10.0,-100.00,NNW,327,14.0,23.0,78,0.00,,,0.00,47.000000,,2014-02-01 15:54:00,
2014-02-01 10:03:00,16.0,10.0,-100.00,NNW,327,14.0,23.0,78,0.00,,,0.00,47.000000,,2014-02-01 16:03:00,
2014-02-01 10:11:00,16.0,8.0,-100.00,NNW,331,15.0,27.0,71,0.00,,,0.00,191.000000,,2014-02-01 16:11:00,
2014-02-01 10:43:00,16.0,8.0,-100.00,NNW,331,15.0,27.0,71,0.00,,,0.00,191.000000,,2014-02-01 16:43:00,
2014-02-01 10:53:00,16.0,8.0,-100.00,NNW,331,15.0,27.0,71,0.00,,,0.00,191.000000,,2014-02-01 16:53:00,
2014-02-01 11:02:00,16.0,8.0,-100.00,NNW,331,15.0,27.0,71,0.00,,,0.00,191.000000,,2014-02-01 17:02:00,
2014-02-01 11:11:00,17.0,9.0,-100.00,NNW,328,15.0,24.0,71,0.00,,,0.00,261.000000,,2014-02-01 17:11:00,
2014-02-01 11:42:00,17.0,9.0,-100.00,NNW,328,15.0,24.0,71,0.00,,,0.00,261.000000,,2014-02-01 17:42:00,
2014-02-01 11:53:00,17.0,9.0,-100.00,NNW,328,15.0,24.0,71,0.00,,,0.00,261.000000,,2014-02-01 17:53:00,
2014-02-01 12:02:00,17.0,9.0,-100.00,NNW,328,15.0,24.0,71,0.00,,,0.00,261.000000,,2014-02-01 18:02:00,
2014-02-01 12:11:00,17.0,8.0,-100.00,NNW,331,14.0,22.0,68,0.00,,,0.00,436.000000,,2014-02-01 18:11:00,
2014-02-01 12:43:00,17.0,8.0,-100.00,NNW,331,14.0,22.0,68,0.00,,,0.00,436.000000,,2014-02-01 18:43:00,
2014-02-01 12:52:00,17.0,8.0,-100.00,NNW,331,14.0,22.0,68,0.00,,,0.00,436.000000,,2014-02-01 18:52:00,
2014-02-01 13:02:00,17.0,8.0,-100.00,NNW,331,14.0,22.0,68,0.00,,,0.00,436.000000,,2014-02-01 19:02:00,
2014-02-01 13:11:00,20.0,11.0,-100.00,NNW,331,14.0,24.0,69,0.00,,,0.00,511.000000,,2014-02-01 19:11:00,
2014-02-01 13:42:00,20.0,11.0,-100.00,NNW,331,14.0,24.0,69,0.00,,,0.00,511.000000,,2014-02-01 19:42:00,
2014-02-01 13:52:00,20.0,11.0,-100.00,NNW,331,14.0,24.0,69,0.00,,,0.00,511.000000,,2014-02-01 19:52:00,
2014-02-01 14:02:00,20.0,11.0,-100.00,NNW,331,14.0,24.0,69,0.00,,,0.00,511.000000,,2014-02-01 20:02:00,
2014-02-01 14:11:00,19.0,10.0,-100.00,NNW,344,12.0,24.0,68,0.00,,,0.00,426.000000,,2014-02-01 20:11:00,
2014-02-01 14:42:00,19.0,10.0,-100.00,NNW,344,12.0,24.0,68,0.00,,,0.00,426.000000,,2014-02-01 20:42:00,
2014-02-01 14:52:00,19.0,10.0,-100.00,NNW,344,12.0,24.0,68,0.00,,,0.00,426.000000,,2014-02-01 20:52:00,
2014-02-01 15:02:00,19.0,10.0,-100.00,NNW,344,12.0,24.0,68,0.00,,,0.00,426.000000,,2014-02-01 21:02:00,
2014-02-01 15:11:00,18.0,9.0,-100.00,NNW,346,10.0,25.0,66,0.00,,,0.00,362.000000,,2014-02-01 21:11:00,
2014-02-01 15:43:00,18.0,9.0,-100.00,NNW,346,10.0,25.0,66,0.00,,,0.00,362.000000,,2014-02-01 21:43:00,
2014-02-01 15:53:00,18.0,9.0,-100.00,NNW,346,10.0,25.0,66,0.00,,,0.00,362.000000,,2014-02-01 21:53:00,
2014-02-01 16:03:00,18.0,9.0,-100.00,NNW,346,10.0,25.0,66,0.00,,,0.00,362.000000,,2014-02-01 22:03:00,
2014-02-01 16:11:00,17.0,7.0,-100.00,NNW,340,11.0,23.0,65,0.00,,,0.00,226.000000,,2014-02-01 22:11:00,
2014-02-01 16:43:00,17.0,7.0,-100.00,NNW,340,11.0,23.0,65,0.00,,,0.00,226.000000,,2014-02-01 22:43:00,
2014-02-01 16:53:00,17.0,7.0,-100.00,NNW,340,11.0,23.0,65,0.00,,,0.00,226.000000,,2014-02-01 22:53:00,
2014-02-01 17:02:00,17.0,7.0,-100.00,NNW,340,11.0,23.0,65,0.00,,,0.00,226.000000,,2014-02-01 23:02:00,
2014-02-01 17:11:00,15.0,6.0,-100.00,NW,326,13.0,21.0,67,0.00,,,0.00,105.000000,,2014-02-01 23:11:00,
2014-02-01 17:42:00,15.0,6.0,-100.00,NW,326,13.0,21.0,67,0.00,,,0.00,105.000000,,2014-02-01 23:42:00,
2014-02-01 17:53:00,15.0,6.0,-100.00,NW,326,13.0,21.0,67,0.00,,,0.00,105.000000,,2014-02-01 23:53:00,
2014-02-01 18:03:00,15.0,6.0,-100.00,NW,326,13.0,21.0,67,0.00,,,0.00,105.000000,,2014-02-02 00:03:00,
2014-02-01 18:11:00,12.0,5.0,-100.00,NNW,342,5.0,19.0,74,0.00,,,0.00,8.000000,,2014-02-02 00:11:00,
2014-02-01 18:43:00,12.0,5.0,-100.00,NNW,342,5.0,19.0,74,0.00,,,0.00,8.000000,,2014-02-02 00:43:00,
2014-02-01 18:52:00,12.0,5.0,-100.00,NNW,342,5.0,19.0,74,0.00,,,0.00,8.000000,,2014-02-02 00:52:00,
2014-02-01 19:01:00,12.0,5.0,-100.00,NNW,342,5.0,19.0,74,0.00,,,0.00,8.000000,,2014-02-02 01:01:00,
2014-02-01 19:11:00,10.0,4.0,-100.00,NNW,345,5.0,13.0,75,0.00,,,0.00,0.000000,,2014-02-02 01:11:00,
2014-02-01 19:42:00,10.0,4.0,-100.00,NNW,345,5.0,13.0,75,0.00,,,0.00,0.000000,,2014-02-02 01:42:00,
2014-02-01 19:52:00,10.0,4.0,-100.00,NNW,345,5.0,13.0,75,0.00,,,0.00,0.000000,,2014-02-02 01:52:00,
2014-02-01 20:01:00,10.0,4.0,-100.00,NNW,345,5.0,13.0,75,0.00,,,0.00,0.000000,,2014-02-02 02:01:00,
2014-02-01 20:11:00,7.0,2.0,-100.00,NNW,344,2.0,11.0,80,0.00,,,-99.99,0.000000,,2014-02-02 02:11:00,
2014-02-01 20:42:00,7.0,2.0,-100.00,NNW,344,2.0,11.0,80,0.00,,,-99.99,0.000000,,2014-02-02 02:42:00,
2014-02-01 20:52:00,7.0,2.0,-100.00,NNW,344,2.0,11.0,80,0.00,,,-99.99,0.000000,,2014-02-02 02:52:00,
2014-02-01 21:02:00,7.0,2.0,-100.00,NNW,344,2.0,11.0,80,0.00,,,-99.99,0.000000,,2014-02-02 03:02:00,
2014-02-01 21:11:00,5.0,1.0,-100.00,NNE,22,5.0,6.0,83,0.00,,,0.00,0.000000,,2014-02-02 03:11:00,
2014-02-01 21:43:00,5.0,1.0,-100.00,NNE,22,5.0,6.0,83,0.00,,,0.00,0.000000,,2014-02-02 03:43:00,
2014-02-01 21:53:00,5.0,1.0,-100.00,NNE,22,5.0,6.0,83,0.00,,,0.00,0.000000,,2014-02-02 03:53:00,
2014-02-01 22:02:00,-999.0,-99.9,-100.00,NNE,22,5.0,6.0,-999,-99.99,,,-99.99,0.000000,,2014-02-02 04:02:00,
2014-02-01 22:11:00,1.0,-2.0,-100.00,North,4,1.0,7.0,86,0.00,,,0.00,0.000000,,2014-02-02 04:11:00,
2014-02-01 22:43:00,1.0,-2.0,-100.00,North,4,1.0,7.0,86,0.00,,,0.00,0.000000,,2014-02-02 04:43:00,
2014-02-01 22:53:00,1.0,-2.0,-100.00,North,4,1.0,7.0,86,0.00,,,0.00,0.000000,,2014-02-02 04:53:00,
2014-02-01 23:03:00,1.0,-2.0,-100.00,North,4,1.0,7.0,86,0.00,,,0.00,0.000000,,2014-02-02 05:03:00,
2014-02-01 23:11:00,-2.0,-4.0,-100.00,North,359,1.0,4.0,90,0.00,,,0.00,0.000000,,2014-02-02 05:11:00,
2014-02-01 23:43:00,-2.0,-4.0,-100.00,North,359,1.0,4.0,90,0.00,,,0.00,0.000000,,2014-02-02 05:43:00,
2014-02-01 23:52:00,-2.0,-4.0,-100.00,North,359,1.0,4.0,90,0.00,,,0.00,0.000000,,2014-02-02 05:52:00,